sensor_id;sensor_type;location;lat;lon;timestamp;temperature;humidity
77100;SHT31;66602;48.922;2.414;2023-02-22T00:00:43;7.77;85.73
77100;SHT31;66602;48.922;2.414;2023-02-22T00:03:13;7.79;85.72
77100;SHT31;66602;48.922;2.414;2023-02-22T00:05:44;7.88;85.49
77100;SHT31;66602;48.922;2.414;2023-02-22T00:08:16;7.95;85.30
77100;SHT31;66602;48.922;2.414;2023-02-22T00:10:42;7.99;85.17
77100;SHT31;66602;48.922;2.414;2023-02-22T00:13:09;8.07;84.94
77100;SHT31;66602;48.922;2.414;2023-02-22T00:15:35;8.12;84.74
77100;SHT31;66602;48.922;2.414;2023-02-22T00:18:02;8.19;84.63
77100;SHT31;66602;48.922;2.414;2023-02-22T00:20:28;8.28;84.31
77100;SHT31;66602;48.922;2.414;2023-02-22T00:22:54;8.29;84.14
77100;SHT31;66602;48.922;2.414;2023-02-22T00:25:22;8.30;84.02
77100;SHT31;66602;48.922;2.414;2023-02-22T00:27:49;8.33;84.00
77100;SHT31;66602;48.922;2.414;2023-02-22T00:30:28;8.39;83.83
77100;SHT31;66602;48.922;2.414;2023-02-22T00:32:55;8.37;83.72
77100;SHT31;66602;48.922;2.414;2023-02-22T00:35:23;8.42;83.62
77100;SHT31;66602;48.922;2.414;2023-02-22T00:37:52;8.46;83.56
77100;SHT31;66602;48.922;2.414;2023-02-22T00:40:20;8.49;83.34
77100;SHT31;66602;48.922;2.414;2023-02-22T00:42:46;8.54;83.10
77100;SHT31;66602;48.922;2.414;2023-02-22T00:45:14;8.56;83.01
77100;SHT31;66602;48.922;2.414;2023-02-22T00:47:40;8.59;82.97
77100;SHT31;66602;48.922;2.414;2023-02-22T00:50:05;8.54;83.00
77100;SHT31;66602;48.922;2.414;2023-02-22T00:52:31;8.57;82.90
77100;SHT31;66602;48.922;2.414;2023-02-22T00:54:56;8.61;82.85
77100;SHT31;66602;48.922;2.414;2023-02-22T00:57:23;8.61;82.71
77100;SHT31;66602;48.922;2.414;2023-02-22T00:59:49;8.67;82.59
77100;SHT31;66602;48.922;2.414;2023-02-22T01:02:15;8.73;82.35
77100;SHT31;66602;48.922;2.414;2023-02-22T01:04:41;8.70;82.29
77100;SHT31;66602;48.922;2.414;2023-02-22T01:07:06;8.77;82.26
77100;SHT31;66602;48.922;2.414;2023-02-22T01:09:32;8.84;81.76
77100;SHT31;66602;48.922;2.414;2023-02-22T01:11:59;8.83;81.75
77100;SHT31;66602;48.922;2.414;2023-02-22T01:14:26;8.73;81.95
77100;SHT31;66602;48.922;2.414;2023-02-22T01:16:53;8.68;82.23
77100;SHT31;66602;48.922;2.414;2023-02-22T01:19:19;8.63;82.35
77100;SHT31;66602;48.922;2.414;2023-02-22T01:21:45;8.59;82.66
77100;SHT31;66602;48.922;2.414;2023-02-22T01:24:11;8.57;82.56
77100;SHT31;66602;48.922;2.414;2023-02-22T01:26:47;8.59;82.35
77100;SHT31;66602;48.922;2.414;2023-02-22T01:29:14;8.59;82.34
77100;SHT31;66602;48.922;2.414;2023-02-22T01:31:49;8.59;82.45
77100;SHT31;66602;48.922;2.414;2023-02-22T01:34:17;8.54;82.41
77100;SHT31;66602;48.922;2.414;2023-02-22T01:36:43;8.47;82.58
77100;SHT31;66602;48.922;2.414;2023-02-22T01:39:08;8.47;82.67
77100;SHT31;66602;48.922;2.414;2023-02-22T01:41:36;8.43;82.83
77100;SHT31;66602;48.922;2.414;2023-02-22T01:44:24;8.37;82.98
77100;SHT31;66602;48.922;2.414;2023-02-22T01:46:52;8.33;83.09
77100;SHT31;66602;48.922;2.414;2023-02-22T01:49:17;8.26;83.20
77100;SHT31;66602;48.922;2.414;2023-02-22T01:51:47;8.23;83.43
77100;SHT31;66602;48.922;2.414;2023-02-22T01:54:20;8.21;83.35
77100;SHT31;66602;48.922;2.414;2023-02-22T01:57:08;8.13;83.74
77100;SHT31;66602;48.922;2.414;2023-02-22T01:59:40;8.16;83.88
77100;SHT31;66602;48.922;2.414;2023-02-22T02:02:07;8.25;83.77
77100;SHT31;66602;48.922;2.414;2023-02-22T02:04:33;8.29;83.32
77100;SHT31;66602;48.922;2.414;2023-02-22T02:07:02;8.30;83.49
77100;SHT31;66602;48.922;2.414;2023-02-22T02:12:00;8.35;83.27
77100;SHT31;66602;48.922;2.414;2023-02-22T02:14:27;8.32;83.52
77100;SHT31;66602;48.922;2.414;2023-02-22T02:16:56;8.30;83.67
77100;SHT31;66602;48.922;2.414;2023-02-22T02:19:44;8.30;83.72
77100;SHT31;66602;48.922;2.414;2023-02-22T02:22:29;8.25;83.67
77100;SHT31;66602;48.922;2.414;2023-02-22T02:34:04;8.23;84.04
77100;SHT31;66602;48.922;2.414;2023-02-22T02:39:17;8.05;84.24
77100;SHT31;66602;48.922;2.414;2023-02-22T02:41:48;7.96;84.63
77100;SHT31;66602;48.922;2.414;2023-02-22T02:44:40;7.98;84.76
77100;SHT31;66602;48.922;2.414;2023-02-22T02:47:39;8.03;85.10
77100;SHT31;66602;48.922;2.414;2023-02-22T02:50:12;8.03;84.79
77100;SHT31;66602;48.922;2.414;2023-02-22T02:52:41;7.98;85.08
77100;SHT31;66602;48.922;2.414;2023-02-22T02:55:09;7.95;85.19
77100;SHT31;66602;48.922;2.414;2023-02-22T02:57:36;8.05;85.41
77100;SHT31;66602;48.922;2.414;2023-02-22T03:00:04;8.16;84.79
77100;SHT31;66602;48.922;2.414;2023-02-22T03:06:14;8.28;84.68
77100;SHT31;66602;48.922;2.414;2023-02-22T03:11:35;8.05;85.32
77100;SHT31;66602;48.922;2.414;2023-02-22T03:17:16;7.99;85.55
77100;SHT31;66602;48.922;2.414;2023-02-22T03:19:48;7.89;85.48
77100;SHT31;66602;48.922;2.414;2023-02-22T03:22:34;7.84;85.71
77100;SHT31;66602;48.922;2.414;2023-02-22T03:25:07;7.88;85.82
77100;SHT31;66602;48.922;2.414;2023-02-22T03:28:03;7.91;85.87
77100;SHT31;66602;48.922;2.414;2023-02-22T03:30:37;7.88;85.80
77100;SHT31;66602;48.922;2.414;2023-02-22T03:33:08;7.88;85.96
77100;SHT31;66602;48.922;2.414;2023-02-22T03:35:42;7.82;85.94
77100;SHT31;66602;48.922;2.414;2023-02-22T03:38:11;7.81;86.14
77100;SHT31;66602;48.922;2.414;2023-02-22T03:40:41;7.84;86.61
77100;SHT31;66602;48.922;2.414;2023-02-22T03:43:21;7.85;86.48
77100;SHT31;66602;48.922;2.414;2023-02-22T03:45:50;7.78;86.97
77100;SHT31;66602;48.922;2.414;2023-02-22T03:48:29;7.74;86.75
77100;SHT31;66602;48.922;2.414;2023-02-22T03:50:56;7.67;86.75
77100;SHT31;66602;48.922;2.414;2023-02-22T03:53:23;7.63;86.91
77100;SHT31;66602;48.922;2.414;2023-02-22T03:55:49;7.61;87.27
77100;SHT31;66602;48.922;2.414;2023-02-22T03:58:17;7.57;87.25
77100;SHT31;66602;48.922;2.414;2023-02-22T04:00:44;7.46;87.49
77100;SHT31;66602;48.922;2.414;2023-02-22T04:03:10;7.44;87.62
77100;SHT31;66602;48.922;2.414;2023-02-22T04:05:36;7.46;87.65
77100;SHT31;66602;48.922;2.414;2023-02-22T04:08:02;7.42;87.51
77100;SHT31;66602;48.922;2.414;2023-02-22T04:10:28;7.37;87.85
77100;SHT31;66602;48.922;2.414;2023-02-22T04:12:53;7.34;88.03
77100;SHT31;66602;48.922;2.414;2023-02-22T04:15:21;7.47;88.36
77100;SHT31;66602;48.922;2.414;2023-02-22T04:17:47;7.73;87.75
77100;SHT31;66602;48.922;2.414;2023-02-22T04:20:14;8.05;86.31
77100;SHT31;66602;48.922;2.414;2023-02-22T04:22:42;8.30;85.16
77100;SHT31;66602;48.922;2.414;2023-02-22T04:25:08;8.32;85.19
77100;SHT31;66602;48.922;2.414;2023-02-22T04:27:33;8.61;83.70
77100;SHT31;66602;48.922;2.414;2023-02-22T04:29:59;8.74;82.93
77100;SHT31;66602;48.922;2.414;2023-02-22T04:32:25;8.95;81.90
77100;SHT31;66602;48.922;2.414;2023-02-22T04:34:50;9.05;81.40
77100;SHT31;66602;48.922;2.414;2023-02-22T04:37:16;8.98;81.78
77100;SHT31;66602;48.922;2.414;2023-02-22T04:39:41;9.08;81.16
77100;SHT31;66602;48.922;2.414;2023-02-22T04:42:06;8.98;81.59
77100;SHT31;66602;48.922;2.414;2023-02-22T04:44:32;8.94;81.81
77100;SHT31;66602;48.922;2.414;2023-02-22T04:46:57;8.85;82.09
77100;SHT31;66602;48.922;2.414;2023-02-22T04:49:23;8.88;82.11
77100;SHT31;66602;48.922;2.414;2023-02-22T04:51:49;8.84;82.13
77100;SHT31;66602;48.922;2.414;2023-02-22T04:54:14;8.80;82.33
77100;SHT31;66602;48.922;2.414;2023-02-22T04:56:42;8.73;82.50
77100;SHT31;66602;48.922;2.414;2023-02-22T04:59:08;8.73;82.72
77100;SHT31;66602;48.922;2.414;2023-02-22T05:01:35;8.92;81.94
77100;SHT31;66602;48.922;2.414;2023-02-22T05:04:05;9.01;81.67
77100;SHT31;66602;48.922;2.414;2023-02-22T05:06:31;9.00;81.67
77100;SHT31;66602;48.922;2.414;2023-02-22T05:08:56;9.04;81.28
77100;SHT31;66602;48.922;2.414;2023-02-22T05:11:22;9.12;81.03
77100;SHT31;66602;48.922;2.414;2023-02-22T05:13:48;9.11;81.04
77100;SHT31;66602;48.922;2.414;2023-02-22T05:16:15;9.16;80.92
77100;SHT31;66602;48.922;2.414;2023-02-22T05:18:40;9.16;80.93
77100;SHT31;66602;48.922;2.414;2023-02-22T05:21:06;9.08;81.18
77100;SHT31;66602;48.922;2.414;2023-02-22T05:23:32;9.10;81.21
77100;SHT31;66602;48.922;2.414;2023-02-22T05:25:58;9.19;80.94
77100;SHT31;66602;48.922;2.414;2023-02-22T05:28:24;9.28;80.78
77100;SHT31;66602;48.922;2.414;2023-02-22T05:30:50;9.34;80.42
77100;SHT31;66602;48.922;2.414;2023-02-22T05:33:15;9.42;80.17
77100;SHT31;66602;48.922;2.414;2023-02-22T05:35:41;9.34;80.51
77100;SHT31;66602;48.922;2.414;2023-02-22T05:38:09;9.32;80.50
77100;SHT31;66602;48.922;2.414;2023-02-22T05:40:36;9.24;80.89
77100;SHT31;66602;48.922;2.414;2023-02-22T05:43:02;9.16;81.18
77100;SHT31;66602;48.922;2.414;2023-02-22T05:45:28;9.14;81.36
77100;SHT31;66602;48.922;2.414;2023-02-22T05:47:54;9.11;81.67
77100;SHT31;66602;48.922;2.414;2023-02-22T05:50:20;9.15;81.43
77100;SHT31;66602;48.922;2.414;2023-02-22T05:52:47;9.14;81.44
77100;SHT31;66602;48.922;2.414;2023-02-22T05:55:14;9.22;81.21
77100;SHT31;66602;48.922;2.414;2023-02-22T05:57:39;9.38;80.61
77100;SHT31;66602;48.922;2.414;2023-02-22T06:00:07;9.29;80.90
77100;SHT31;66602;48.922;2.414;2023-02-22T06:02:33;9.35;80.83
77100;SHT31;66602;48.922;2.414;2023-02-22T06:04:59;9.26;81.06
77100;SHT31;66602;48.922;2.414;2023-02-22T06:07:25;9.35;80.98
77100;SHT31;66602;48.922;2.414;2023-02-22T06:09:51;9.26;81.20
77100;SHT31;66602;48.922;2.414;2023-02-22T06:12:17;9.31;81.02
77100;SHT31;66602;48.922;2.414;2023-02-22T06:14:43;9.47;80.64
77100;SHT31;66602;48.922;2.414;2023-02-22T06:17:11;9.45;80.63
77100;SHT31;66602;48.922;2.414;2023-02-22T06:19:37;9.43;80.69
77100;SHT31;66602;48.922;2.414;2023-02-22T06:22:05;9.40;80.97
77100;SHT31;66602;48.922;2.414;2023-02-22T06:24:31;9.36;81.15
77100;SHT31;66602;48.922;2.414;2023-02-22T06:27:00;9.36;81.20
77100;SHT31;66602;48.922;2.414;2023-02-22T06:29:28;9.25;81.65
77100;SHT31;66602;48.922;2.414;2023-02-22T06:31:54;9.29;81.53
77100;SHT31;66602;48.922;2.414;2023-02-22T06:34:20;9.40;81.37
77100;SHT31;66602;48.922;2.414;2023-02-22T06:36:47;9.36;81.38
77100;SHT31;66602;48.922;2.414;2023-02-22T06:39:17;9.29;81.58
77100;SHT31;66602;48.922;2.414;2023-02-22T06:41:44;9.22;81.80
77100;SHT31;66602;48.922;2.414;2023-02-22T06:44:11;9.26;81.78
77100;SHT31;66602;48.922;2.414;2023-02-22T06:46:37;9.24;81.93
77100;SHT31;66602;48.922;2.414;2023-02-22T06:49:03;9.21;82.02
77100;SHT31;66602;48.922;2.414;2023-02-22T06:51:29;9.26;82.08
77100;SHT31;66602;48.922;2.414;2023-02-22T06:53:55;9.40;81.53
77100;SHT31;66602;48.922;2.414;2023-02-22T06:56:21;9.38;81.55
77100;SHT31;66602;48.922;2.414;2023-02-22T06:58:46;9.32;81.76
77100;SHT31;66602;48.922;2.414;2023-02-22T07:01:13;9.24;82.04
77100;SHT31;66602;48.922;2.414;2023-02-22T07:03:39;9.16;82.54
77100;SHT31;66602;48.922;2.414;2023-02-22T07:06:06;9.07;82.94
77100;SHT31;66602;48.922;2.414;2023-02-22T07:08:32;9.18;82.65
77100;SHT31;66602;48.922;2.414;2023-02-22T07:10:57;9.18;82.72
77100;SHT31;66602;48.922;2.414;2023-02-22T07:13:23;9.12;82.85
77100;SHT31;66602;48.922;2.414;2023-02-22T07:15:48;8.97;83.31
77100;SHT31;66602;48.922;2.414;2023-02-22T07:18:14;8.92;83.88
77100;SHT31;66602;48.922;2.414;2023-02-22T07:20:40;8.94;83.94
77100;SHT31;66602;48.922;2.414;2023-02-22T07:23:07;9.05;83.48
77100;SHT31;66602;48.922;2.414;2023-02-22T07:25:32;9.08;83.38
77100;SHT31;66602;48.922;2.414;2023-02-22T07:27:58;9.08;83.47
77100;SHT31;66602;48.922;2.414;2023-02-22T07:30:26;9.21;83.38
77100;SHT31;66602;48.922;2.414;2023-02-22T07:32:56;9.22;83.21
77100;SHT31;66602;48.922;2.414;2023-02-22T07:35:47;9.31;83.15
77100;SHT31;66602;48.922;2.414;2023-02-22T07:38:14;9.34;83.33
77100;SHT31;66602;48.922;2.414;2023-02-22T07:40:41;9.39;83.32
77100;SHT31;66602;48.922;2.414;2023-02-22T07:43:27;9.31;83.60
77100;SHT31;66602;48.922;2.414;2023-02-22T07:45:55;9.32;83.83
77100;SHT31;66602;48.922;2.414;2023-02-22T07:48:22;9.26;84.08
77100;SHT31;66602;48.922;2.414;2023-02-22T07:50:48;9.31;84.20
77100;SHT31;66602;48.922;2.414;2023-02-22T07:53:20;9.49;84.08
77100;SHT31;66602;48.922;2.414;2023-02-22T07:55:46;9.55;84.01
77100;SHT31;66602;48.922;2.414;2023-02-22T07:58:17;9.57;83.87
77100;SHT31;66602;48.922;2.414;2023-02-22T08:00:42;9.53;83.92
77100;SHT31;66602;48.922;2.414;2023-02-22T08:03:11;9.57;83.92
77100;SHT31;66602;48.922;2.414;2023-02-22T08:05:39;9.60;83.88
77100;SHT31;66602;48.922;2.414;2023-02-22T08:08:05;9.52;84.01
77100;SHT31;66602;48.922;2.414;2023-02-22T08:10:32;9.50;84.17
77100;SHT31;66602;48.922;2.414;2023-02-22T08:12:59;9.53;84.23
77100;SHT31;66602;48.922;2.414;2023-02-22T08:15:27;9.52;84.25
77100;SHT31;66602;48.922;2.414;2023-02-22T08:17:54;9.53;84.21
77100;SHT31;66602;48.922;2.414;2023-02-22T08:20:20;9.52;84.33
77100;SHT31;66602;48.922;2.414;2023-02-22T08:22:47;9.50;84.44
77100;SHT31;66602;48.922;2.414;2023-02-22T08:25:13;9.52;84.44
77100;SHT31;66602;48.922;2.414;2023-02-22T08:27:40;9.53;84.37
77100;SHT31;66602;48.922;2.414;2023-02-22T08:30:06;9.50;84.45
77100;SHT31;66602;48.922;2.414;2023-02-22T08:32:32;9.53;84.50
77100;SHT31;66602;48.922;2.414;2023-02-22T08:35:04;9.50;84.57
77100;SHT31;66602;48.922;2.414;2023-02-22T08:37:30;9.55;84.44
77100;SHT31;66602;48.922;2.414;2023-02-22T08:39:55;9.57;84.36
77100;SHT31;66602;48.922;2.414;2023-02-22T08:42:21;9.62;84.12
77100;SHT31;66602;48.922;2.414;2023-02-22T08:44:46;9.65;84.10
77100;SHT31;66602;48.922;2.414;2023-02-22T08:47:12;9.66;83.89
77100;SHT31;66602;48.922;2.414;2023-02-22T08:49:37;9.70;83.78
77100;SHT31;66602;48.922;2.414;2023-02-22T08:52:03;9.76;83.56
77100;SHT31;66602;48.922;2.414;2023-02-22T08:54:29;9.82;83.02
77100;SHT31;66602;48.922;2.414;2023-02-22T08:56:54;9.62;83.86
77100;SHT31;66602;48.922;2.414;2023-02-22T08:59:20;9.67;83.39
77100;SHT31;66602;48.922;2.414;2023-02-22T09:01:45;9.69;83.41
77100;SHT31;66602;48.922;2.414;2023-02-22T09:04:11;9.73;83.22
77100;SHT31;66602;48.922;2.414;2023-02-22T09:06:39;9.69;83.31
77100;SHT31;66602;48.922;2.414;2023-02-22T09:09:06;9.67;83.53
77100;SHT31;66602;48.922;2.414;2023-02-22T09:11:31;9.77;83.05
77100;SHT31;66602;48.922;2.414;2023-02-22T09:13:57;9.79;82.89
77100;SHT31;66602;48.922;2.414;2023-02-22T09:16:22;9.76;83.08
77100;SHT31;66602;48.922;2.414;2023-02-22T09:18:48;9.87;82.76
77100;SHT31;66602;48.922;2.414;2023-02-22T09:21:13;9.90;82.51
77100;SHT31;66602;48.922;2.414;2023-02-22T09:23:39;9.80;82.93
77100;SHT31;66602;48.922;2.414;2023-02-22T09:26:07;9.67;83.54
77100;SHT31;66602;48.922;2.414;2023-02-22T09:28:33;9.66;83.57
77100;SHT31;66602;48.922;2.414;2023-02-22T09:31:00;9.69;83.42
77100;SHT31;66602;48.922;2.414;2023-02-22T09:33:27;9.73;83.07
77100;SHT31;66602;48.922;2.414;2023-02-22T09:35:52;9.62;83.34
77100;SHT31;66602;48.922;2.414;2023-02-22T09:38:21;9.66;83.46
77100;SHT31;66602;48.922;2.414;2023-02-22T09:41:13;9.74;83.35
77100;SHT31;66602;48.922;2.414;2023-02-22T09:43:52;9.84;82.89
77100;SHT31;66602;48.922;2.414;2023-02-22T09:46:29;9.86;82.62
77100;SHT31;66602;48.922;2.414;2023-02-22T09:51:47;9.94;82.06
77100;SHT31;66602;48.922;2.414;2023-02-22T09:54:27;9.91;82.23
77100;SHT31;66602;48.922;2.414;2023-02-22T09:56:56;9.91;82.39
77100;SHT31;66602;48.922;2.414;2023-02-22T09:59:27;10.05;81.80
77100;SHT31;66602;48.922;2.414;2023-02-22T10:02:02;10.11;81.56
77100;SHT31;66602;48.922;2.414;2023-02-22T10:04:48;10.14;81.25
77100;SHT31;66602;48.922;2.414;2023-02-22T10:09:59;10.08;81.39
77100;SHT31;66602;48.922;2.414;2023-02-22T10:15:32;10.07;81.55
77100;SHT31;66602;48.922;2.414;2023-02-22T10:20:56;10.08;81.58
77100;SHT31;66602;48.922;2.414;2023-02-22T10:23:37;9.95;82.20
77100;SHT31;66602;48.922;2.414;2023-02-22T10:26:14;9.98;81.96
77100;SHT31;66602;48.922;2.414;2023-02-22T10:28:51;10.05;81.93
77100;SHT31;66602;48.922;2.414;2023-02-22T10:31:27;10.11;81.60
77100;SHT31;66602;48.922;2.414;2023-02-22T10:34:09;10.18;81.34
77100;SHT31;66602;48.922;2.414;2023-02-22T10:36:36;10.14;81.45
77100;SHT31;66602;48.922;2.414;2023-02-22T10:39:29;10.13;81.74
77100;SHT31;66602;48.922;2.414;2023-02-22T10:41:58;10.17;81.72
77100;SHT31;66602;48.922;2.414;2023-02-22T10:44:31;10.04;81.88
77100;SHT31;66602;48.922;2.414;2023-02-22T10:46:58;10.04;82.11
77100;SHT31;66602;48.922;2.414;2023-02-22T10:49:26;10.10;81.88
77100;SHT31;66602;48.922;2.414;2023-02-22T10:52:00;10.18;81.60
77100;SHT31;66602;48.922;2.414;2023-02-22T10:54:45;10.14;81.64
77100;SHT31;66602;48.922;2.414;2023-02-22T10:57:12;10.17;81.75
77100;SHT31;66602;48.922;2.414;2023-02-22T10:59:40;10.17;81.58
77100;SHT31;66602;48.922;2.414;2023-02-22T11:02:19;10.04;82.27
77100;SHT31;66602;48.922;2.414;2023-02-22T11:04:52;10.04;82.19
77100;SHT31;66602;48.922;2.414;2023-02-22T11:07:29;9.98;82.74
77100;SHT31;66602;48.922;2.414;2023-02-22T11:10:00;9.87;83.01
77100;SHT31;66602;48.922;2.414;2023-02-22T11:12:32;9.89;82.95
77100;SHT31;66602;48.922;2.414;2023-02-22T11:17:43;9.89;83.21
77100;SHT31;66602;48.922;2.414;2023-02-22T11:20:21;9.84;83.35
77100;SHT31;66602;48.922;2.414;2023-02-22T11:22:51;9.83;83.39
77100;SHT31;66602;48.922;2.414;2023-02-22T11:25:21;9.89;83.17
77100;SHT31;66602;48.922;2.414;2023-02-22T11:30:31;9.89;83.24
77100;SHT31;66602;48.922;2.414;2023-02-22T11:33:24;9.90;83.28
77100;SHT31;66602;48.922;2.414;2023-02-22T11:38:25;9.95;83.01
77100;SHT31;66602;48.922;2.414;2023-02-22T11:41:17;9.93;82.98
77100;SHT31;66602;48.922;2.414;2023-02-22T11:43:47;9.93;83.01
77100;SHT31;66602;48.922;2.414;2023-02-22T11:49:01;9.79;83.79
77100;SHT31;66602;48.922;2.414;2023-02-22T11:54:40;9.86;83.47
77100;SHT31;66602;48.922;2.414;2023-02-22T12:00:34;9.91;83.24
77100;SHT31;66602;48.922;2.414;2023-02-22T12:03:21;9.98;83.28
77100;SHT31;66602;48.922;2.414;2023-02-22T12:11:38;9.90;83.69
77100;SHT31;66602;48.922;2.414;2023-02-22T12:14:42;10.00;83.17
77100;SHT31;66602;48.922;2.414;2023-02-22T12:17:20;10.07;83.01
77100;SHT31;66602;48.922;2.414;2023-02-22T12:19:55;10.17;82.65
77100;SHT31;66602;48.922;2.414;2023-02-22T12:22:31;10.14;82.40
77100;SHT31;66602;48.922;2.414;2023-02-22T12:25:20;10.13;82.20
77100;SHT31;66602;48.922;2.414;2023-02-22T12:27:49;10.03;82.35
77100;SHT31;66602;48.922;2.414;2023-02-22T12:30:36;9.95;82.82
77100;SHT31;66602;48.922;2.414;2023-02-22T12:33:24;9.84;83.47
77100;SHT31;66602;48.922;2.414;2023-02-22T12:35:54;9.84;83.61
77100;SHT31;66602;48.922;2.414;2023-02-22T12:38:32;9.79;83.57
77100;SHT31;66602;48.922;2.414;2023-02-22T12:41:06;9.70;84.00
77100;SHT31;66602;48.922;2.414;2023-02-22T12:43:45;9.70;84.32
77100;SHT31;66602;48.922;2.414;2023-02-22T13:00:10;10.00;82.90
77100;SHT31;66602;48.922;2.414;2023-02-22T13:02:44;10.03;82.73
77100;SHT31;66602;48.922;2.414;2023-02-22T13:05:14;10.05;82.71
77100;SHT31;66602;48.922;2.414;2023-02-22T13:18:43;9.86;83.01
77100;SHT31;66602;48.922;2.414;2023-02-22T13:21:36;9.87;82.58
77100;SHT31;66602;48.922;2.414;2023-02-22T13:26:51;9.91;82.46
77100;SHT31;66602;48.922;2.414;2023-02-22T13:29:33;9.91;82.69
77100;SHT31;66602;48.922;2.414;2023-02-22T13:32:12;9.93;82.65
77100;SHT31;66602;48.922;2.414;2023-02-22T13:40:28;9.89;83.02
77100;SHT31;66602;48.922;2.414;2023-02-22T13:43:15;10.00;82.78
77100;SHT31;66602;48.922;2.414;2023-02-22T13:54:06;9.73;83.84
77100;SHT31;66602;48.922;2.414;2023-02-22T13:56:31;9.77;83.85
77100;SHT31;66602;48.922;2.414;2023-02-22T13:58:59;9.65;84.30
77100;SHT31;66602;48.922;2.414;2023-02-22T14:01:45;9.60;84.35
77100;SHT31;66602;48.922;2.414;2023-02-22T14:06:44;9.72;83.94
77100;SHT31;66602;48.922;2.414;2023-02-22T14:20:28;9.77;83.92
77100;SHT31;66602;48.922;2.414;2023-02-22T14:23:28;9.82;83.90
77100;SHT31;66602;48.922;2.414;2023-02-22T14:26:13;9.79;84.00
77100;SHT31;66602;48.922;2.414;2023-02-22T14:28:55;9.73;84.20
77100;SHT31;66602;48.922;2.414;2023-02-22T14:31:33;9.74;84.55
77100;SHT31;66602;48.922;2.414;2023-02-22T14:37:02;9.50;85.16
77100;SHT31;66602;48.922;2.414;2023-02-22T14:39:40;9.53;84.93
77100;SHT31;66602;48.922;2.414;2023-02-22T14:50:41;9.49;85.67
77100;SHT31;66602;48.922;2.414;2023-02-22T14:53:27;9.39;86.23
77100;SHT31;66602;48.922;2.414;2023-02-22T15:00:56;9.15;88.33
77100;SHT31;66602;48.922;2.414;2023-02-22T15:03:33;9.12;88.65
77100;SHT31;66602;48.922;2.414;2023-02-22T15:06:06;9.15;88.60
77100;SHT31;66602;48.922;2.414;2023-02-22T15:08:39;9.19;88.26
77100;SHT31;66602;48.922;2.414;2023-02-22T15:11:19;9.28;88.15
77100;SHT31;66602;48.922;2.414;2023-02-22T15:13:50;9.43;87.84
77100;SHT31;66602;48.922;2.414;2023-02-22T15:16:16;9.65;87.37
77100;SHT31;66602;48.922;2.414;2023-02-22T15:18:45;9.73;86.97
77100;SHT31;66602;48.922;2.414;2023-02-22T15:21:14;9.80;86.87
77100;SHT31;66602;48.922;2.414;2023-02-22T15:23:45;9.70;86.86
77100;SHT31;66602;48.922;2.414;2023-02-22T15:26:24;9.62;87.34
77100;SHT31;66602;48.922;2.414;2023-02-22T15:28:57;9.55;87.23
77100;SHT31;66602;48.922;2.414;2023-02-22T15:31:33;9.45;86.67
77100;SHT31;66602;48.922;2.414;2023-02-22T15:34:30;9.36;87.35
77100;SHT31;66602;48.922;2.414;2023-02-22T15:36:57;9.29;87.74
77100;SHT31;66602;48.922;2.414;2023-02-22T15:39:32;9.32;87.52
77100;SHT31;66602;48.922;2.414;2023-02-22T15:42:12;9.32;87.86
77100;SHT31;66602;48.922;2.414;2023-02-22T15:44:49;9.29;88.09
77100;SHT31;66602;48.922;2.414;2023-02-22T15:47:29;9.28;88.27
77100;SHT31;66602;48.922;2.414;2023-02-22T15:50:25;9.28;87.87
77100;SHT31;66602;48.922;2.414;2023-02-22T15:55:27;9.35;87.42
77100;SHT31;66602;48.922;2.414;2023-02-22T15:57:55;9.38;86.69
77100;SHT31;66602;48.922;2.414;2023-02-22T16:00:30;9.38;85.88
77100;SHT31;66602;48.922;2.414;2023-02-22T16:03:20;9.36;86.18
77100;SHT31;66602;48.922;2.414;2023-02-22T16:05:54;9.34;86.77
77100;SHT31;66602;48.922;2.414;2023-02-22T16:08:57;9.29;87.10
77100;SHT31;66602;48.922;2.414;2023-02-22T16:11:27;9.36;86.69
77100;SHT31;66602;48.922;2.414;2023-02-22T16:14:02;9.40;86.44
77100;SHT31;66602;48.922;2.414;2023-02-22T16:16:36;9.50;86.23
77100;SHT31;66602;48.922;2.414;2023-02-22T16:19:37;9.50;86.40
77100;SHT31;66602;48.922;2.414;2023-02-22T16:22:05;9.50;85.74
77100;SHT31;66602;48.922;2.414;2023-02-22T16:24:38;9.47;86.03
77100;SHT31;66602;48.922;2.414;2023-02-22T16:29:35;9.55;85.00
77100;SHT31;66602;48.922;2.414;2023-02-22T16:32:00;9.60;85.05
77100;SHT31;66602;48.922;2.414;2023-02-22T16:34:26;9.62;85.04
77100;SHT31;66602;48.922;2.414;2023-02-22T16:36:52;9.57;85.06
77100;SHT31;66602;48.922;2.414;2023-02-22T16:39:24;9.59;85.18
77100;SHT31;66602;48.922;2.414;2023-02-22T16:41:56;9.56;85.35
77100;SHT31;66602;48.922;2.414;2023-02-22T16:44:23;9.57;85.14
77100;SHT31;66602;48.922;2.414;2023-02-22T16:46:50;9.52;85.55
77100;SHT31;66602;48.922;2.414;2023-02-22T16:49:17;9.49;85.68
77100;SHT31;66602;48.922;2.414;2023-02-22T16:51:49;9.45;86.25
77100;SHT31;66602;48.922;2.414;2023-02-22T16:54:32;9.42;86.06
77100;SHT31;66602;48.922;2.414;2023-02-22T16:57:00;9.36;86.58
77100;SHT31;66602;48.922;2.414;2023-02-22T16:59:27;9.35;86.75
77100;SHT31;66602;48.922;2.414;2023-02-22T17:01:54;9.32;87.22
77100;SHT31;66602;48.922;2.414;2023-02-22T17:04:24;9.29;87.43
77100;SHT31;66602;48.922;2.414;2023-02-22T17:06:51;9.26;87.24
77100;SHT31;66602;48.922;2.414;2023-02-22T17:09:34;9.21;87.46
77100;SHT31;66602;48.922;2.414;2023-02-22T17:12:00;9.21;87.29
77100;SHT31;66602;48.922;2.414;2023-02-22T17:14:31;9.19;87.24
77100;SHT31;66602;48.922;2.414;2023-02-22T17:16:57;9.25;86.70
77100;SHT31;66602;48.922;2.414;2023-02-22T17:19:24;9.21;86.99
77100;SHT31;66602;48.922;2.414;2023-02-22T17:21:51;9.21;86.88
77100;SHT31;66602;48.922;2.414;2023-02-22T17:24:20;9.18;86.97
77100;SHT31;66602;48.922;2.414;2023-02-22T17:26:47;9.24;86.15
77100;SHT31;66602;48.922;2.414;2023-02-22T17:29:16;9.38;85.80
77100;SHT31;66602;48.922;2.414;2023-02-22T17:31:43;9.45;85.38
77100;SHT31;66602;48.922;2.414;2023-02-22T17:34:10;9.49;84.95
77100;SHT31;66602;48.922;2.414;2023-02-22T17:36:36;9.42;85.41
77100;SHT31;66602;48.922;2.414;2023-02-22T17:39:03;9.42;85.08
77100;SHT31;66602;48.922;2.414;2023-02-22T17:41:30;9.49;85.23
77100;SHT31;66602;48.922;2.414;2023-02-22T17:43:56;9.56;84.44
77100;SHT31;66602;48.922;2.414;2023-02-22T17:46:23;9.53;84.91
77100;SHT31;66602;48.922;2.414;2023-02-22T17:48:52;9.57;84.71
77100;SHT31;66602;48.922;2.414;2023-02-22T17:51:23;9.65;84.35
77100;SHT31;66602;48.922;2.414;2023-02-22T17:53:49;9.62;84.20
77100;SHT31;66602;48.922;2.414;2023-02-22T17:56:17;9.56;84.71
77100;SHT31;66602;48.922;2.414;2023-02-22T17:58:50;9.50;85.20
77100;SHT31;66602;48.922;2.414;2023-02-22T18:01:30;9.55;85.02
77100;SHT31;66602;48.922;2.414;2023-02-22T18:03:58;9.47;85.33
77100;SHT31;66602;48.922;2.414;2023-02-22T18:06:26;9.46;85.51
77100;SHT31;66602;48.922;2.414;2023-02-22T18:08:57;9.46;85.28
77100;SHT31;66602;48.922;2.414;2023-02-22T18:11:24;9.47;85.29
77100;SHT31;66602;48.922;2.414;2023-02-22T18:13:55;9.57;84.42
77100;SHT31;66602;48.922;2.414;2023-02-22T18:16:21;9.56;84.62
77100;SHT31;66602;48.922;2.414;2023-02-22T18:18:46;9.62;84.65
77100;SHT31;66602;48.922;2.414;2023-02-22T18:21:13;9.47;85.21